Longswamp, Pennsylvania
Current Conditions -  °F | °C
As of 5:35 PM on Friday 19 Dec 2014 (Local Time) from KXLL Reporting Station
Broken Clouds Broken Clouds  
Wind Chill: 28°   Ceiling: 3600
Heat Index: 34°   Visibility: 10mi
Dew Point: 23°   Wind: 7mph
Humidity: 65%   Direction: 340°NNW
Pressure: 30.15"   Gusts: NA
Location:  40.4939°N, 75.6842°W
Report Text: KXLL 192235Z AUTO 34006KT 10SM BKN036 01/M05 A3015 RMK AO2
Loading
Personal Weather Stations






























Interactive Weather Map New forecast layout! Learn more

10-Day Weather Forecast

Advertisements
Track Severe Weather on mobile